Stations météo

réclame
Mon MeteoGroup
Venezia Lido, Italie (16101): Température de l'air & dewpoint: 15.02.2019 19:00:00 - 21.02.2019 19:00:00 (CET)Venezia Lido, Italie (16101): Vitesse du vent: 15.02.2019 19:00:00 - 21.02.2019 19:00:00 (CET)Venezia Lido, Italie (16101): Direction du vent: 15.02.2019 19:00:00 - 21.02.2019 19:00:00 (CET)Venezia Lido, Italie (16101): reduced air pressure: 15.02.2019 19:00:00 - 21.02.2019 19:00:00 (CET)
Date & Time tt [°C] td [°C] ff [km/h] ff [knt] dd ppp [hPa]
21.02.2019 19:00:00 2,6 1,1 0 0 N 1026,8
21.02.2019 18:00:00 4,1 2,6 2 1 S 1026,5
21.02.2019 17:00:00 6,9 5,4 2 1 SSW 1026,6
21.02.2019 16:00:00 8,1 6,4 2 1 SSW 1026,9
21.02.2019 15:00:00 8,3 6,4 4 2 SW 1027,2
21.02.2019 14:00:00 7,6 5,9 2 1 W 1027,9
21.02.2019 13:00:00 5,9 4,4 4 2 W 1028,4
21.02.2019 12:00:00 5,2 3,8 4 2 W 1028,9
21.02.2019 11:00:00 2,9 1,6 8 4 W 1029,0
21.02.2019 10:00:00 2,9 1,6 0 0 N 1029,0
21.02.2019 09:00:00 2,5 1,2 0 0 N 1028,7
21.02.2019 08:00:00 0,3 -1,0 0 0 N 1028,2
21.02.2019 07:00:00 0,3 -1,0 0 0 N 1027,6
21.02.2019 06:00:00 1,4 0,1 0 0 N 1027,5
21.02.2019 05:00:00 1,3 0,0 0 0 N 1027,4
21.02.2019 04:00:00 0,6 -0,7 0 0 N 1027,2
21.02.2019 03:00:00 2,3 1,0 0 0 N 1027,2
21.02.2019 02:00:00 2,0 0,7 0 0 N 1027,4
21.02.2019 01:00:00 0,8 -0,5 0 0 N 1027,1
21.02.2019 00:00:00 1,2 -0,1 0 0 N 1026,8
20.02.2019 23:00:00 2,1 0,8 0 0 N 1026,7
20.02.2019 22:00:00 1,9 0,4 0 0 N 1026,6
20.02.2019 21:00:00 0,8 -0,7 0 0 N 1026,4
20.02.2019 20:00:00 1,0 -0,5 0 0 N 1026,0
20.02.2019 19:00:00 2,1 0,6 0 0 N 1025,7
20.02.2019 18:00:00 4,1 2,4 0 0 N 1025,2
20.02.2019 17:00:00 5,9 4,0 0 0 N 1025,1
20.02.2019 16:00:00 6,6 4,2 2 1 SW 1025,0
20.02.2019 15:00:00 6,9 4,2 0 0 N 1025,2
20.02.2019 14:00:00 7,1 4,5 0 0 N 1025,2
20.02.2019 13:00:00 6,6 5,1 0 0 N 1025,4
20.02.2019 12:00:00 5,7 4,2 0 0 N 1026,0
20.02.2019 11:00:00 5,0 3,6 2 1 NE 1025,9
20.02.2019 10:00:00 4,3 2,9 0 0 N 1025,8
20.02.2019 09:00:00 4,0 2,6 0 0 N 1025,2
20.02.2019 08:00:00 3,7 2,3 0 0 N 1024,6
20.02.2019 07:00:00 3,6 2,2 0 0 N 1023,9
20.02.2019 06:00:00 3,7 2,3 0 0 N 1023,9
20.02.2019 05:00:00 3,9 2,5 0 0 N 1023,8
20.02.2019 04:00:00 4,2 3,0 0 0 N 1023,7
20.02.2019 03:00:00 4,2 3,0 0 0 N 1024,0
20.02.2019 02:00:00 4,0 2,8 0 0 N 1024,1
20.02.2019 01:00:00 4,0 2,8 2 1 NNE 1024,1
20.02.2019 00:00:00 3,9 2,7 0 0 N 1023,9
19.02.2019 23:00:00 3,9 2,7 0 0 N 1023,9
19.02.2019 22:00:00 3,2 2,0 0 0 N 1023,9
19.02.2019 21:00:00 3,2 2,0 0 0 N 1023,7
19.02.2019 20:00:00 3,6 2,4 2 1 NE 1023,2
19.02.2019 19:00:00 4,7 3,5 0 0 N 1023,0
19.02.2019 18:00:00 5,4 4,2 0 0 N 1022,5
19.02.2019 17:00:00 5,7 4,5 0 0 N 1022,4
19.02.2019 16:00:00 4,8 3,6 0 0 N 1022,5
19.02.2019 15:00:00 4,1 2,9 0 0 N 1022,7
19.02.2019 14:00:00 3,8 2,6 0 0 N 1022,9
19.02.2019 13:00:00 2,8 1,6 0 0 N 1023,3
19.02.2019 12:00:00 1,1 -0,1 4 2 NE 1023,9
19.02.2019 11:00:00 -0,1 -1,3 2 1 NNE 1023,9
19.02.2019 10:00:00 0,5 -0,7 0 0 N 1023,6
19.02.2019 09:00:00 0,3 -0,9 0 0 N 1023,3
19.02.2019 08:00:00 -0,8 -2,0 0 0 N 1023,0
19.02.2019 07:00:00 -0,8 -2,0 0 0 N 1022,5
19.02.2019 06:00:00 -0,7 -1,9 0 0 N 1022,3
19.02.2019 05:00:00 -1,5 -2,6 0 0 N 1022,3
19.02.2019 04:00:00 -1,9 -3,0 2 1 E 1022,2
19.02.2019 03:00:00 -2,0 -3,1 0 0 N 1022,6
19.02.2019 02:00:00 -1,9 -3,0 0 0 N 1022,7
19.02.2019 01:00:00 -1,5 -2,6 0 0 N 1022,9
19.02.2019 00:00:00 -2,0 -3,1 0 0 N 1022,9
18.02.2019 23:00:00 -2,2 -3,3 0 0 N 1022,9
18.02.2019 22:00:00 -1,6 -2,7 0 0 N 1023,1
18.02.2019 21:00:00 -1,3 -2,5 0 0 N 1022,9
18.02.2019 20:00:00 0,1 -1,1 0 0 N 1023,0
18.02.2019 19:00:00 0,2 -1,0 0 0 N 1022,8
18.02.2019 18:00:00 0,7 -0,5 0 0 N 1022,5
18.02.2019 17:00:00 1,4 0,2 0 0 N 1022,7
18.02.2019 16:00:00 2,4 1,2 2 1 SSE 1022,9
18.02.2019 15:00:00 2,5 1,3 2 1 SSE 1023,2
18.02.2019 14:00:00 2,0 0,8 0 0 N 1023,9
18.02.2019 13:00:00 1,7 0,5 0 0 N 1024,5
18.02.2019 12:00:00 1,3 0,1 0 0 N 1025,3
18.02.2019 11:00:00 1,2 0,0 2 1 SE 1025,3
18.02.2019 10:00:00 0,6 -0,7 2 1 ENE 1025,2
18.02.2019 09:00:00 -0,7 -2,0 0 0 N 1025,2
18.02.2019 08:00:00 -2,1 -3,4 0 0 N 1025,3
18.02.2019 07:00:00 -2,2 -3,5 0 0 N 1024,9
18.02.2019 06:00:00 -2,0 -3,3 0 0 N 1024,9
18.02.2019 05:00:00 -2,0 -3,3 0 0 N 1024,9
18.02.2019 04:00:00 -2,0 -3,3 0 0 N 1025,0
18.02.2019 03:00:00 -1,7 -3,1 0 0 N 1025,3
18.02.2019 02:00:00 -1,6 -3,0 0 0 N 1025,5
18.02.2019 01:00:00 0,2 -1,3 0 0 N 1025,7
18.02.2019 00:00:00 0,1 -1,4 0 0 N 1025,7
17.02.2019 23:00:00 0,6 -0,9 0 0 N 1026,0
17.02.2019 22:00:00 1,7 0,2 0 0 N 1026,1
17.02.2019 21:00:00 3,4 1,9 0 0 N 1026,0
17.02.2019 20:00:00 4,2 2,2 0 0 N 1025,9
17.02.2019 19:00:00 4,2 0,8 0 0 N 1025,9
17.02.2019 18:00:00 5,4 0,3 0 0 N 1025,6
17.02.2019 17:00:00 8,7 2,8 0 0 N 1025,7
17.02.2019 16:00:00 9,7 3,8 2 1 SSW 1026,1
17.02.2019 15:00:00 9,9 5,2 2 1 SSW 1026,6
17.02.2019 14:00:00 9,1 4,9 4 2 SSW 1027,2
17.02.2019 13:00:00 10,1 6,2 0 0 N 1027,8
17.02.2019 12:00:00 6,9 4,2 0 0 N 1028,7
17.02.2019 11:00:00 6,2 4,7 0 0 N 1028,8
17.02.2019 10:00:00 3,1 1,8 0 0 N 1028,9
17.02.2019 09:00:00 1,1 -0,2 0 0 N 1029,0
17.02.2019 08:00:00 -1,6 -2,9 0 0 N 1028,9
17.02.2019 07:00:00 -1,7 -3,0 0 0 N 1028,6
17.02.2019 06:00:00 -1,4 -2,7 0 0 N 1028,5
17.02.2019 05:00:00 -0,6 -1,9 0 0 N 1028,5
17.02.2019 04:00:00 0,6 -0,7 2 1 N 1028,6
17.02.2019 03:00:00 1,1 -0,2 2 1 N 1029,0
17.02.2019 02:00:00 2,5 1,2 0 0 N 1029,3
17.02.2019 01:00:00 1,3 -0,2 0 0 N 1029,5
17.02.2019 00:00:00 1,4 -0,1 0 0 N 1029,7
16.02.2019 23:00:00 1,0 -0,6 0 0 N 1029,8
16.02.2019 22:00:00 1,5 -0,6 2 1 NW 1029,7
16.02.2019 21:00:00 2,4 -0,1 0 0 N 1029,7
16.02.2019 20:00:00 3,5 0,2 4 2 SW 1029,8
16.02.2019 19:00:00 5,4 2,2 5 3 SW 1029,9
16.02.2019 18:00:00 6,6 0,2 0 0 N 1029,7
16.02.2019 17:00:00 11,1 3,5 0 0 N 1029,6
16.02.2019 16:00:00 11,8 3,2 2 1 W 1030,1
16.02.2019 15:00:00 12,0 4,2 2 1 W 1030,6
16.02.2019 14:00:00 10,5 4,8 2 1 W 1031,1
16.02.2019 13:00:00 8,8 3,6 2 1 WNW 1031,9
16.02.2019 12:00:00 7,6 4,0 0 0 N 1032,5
16.02.2019 11:00:00 5,9 4,0 0 0 N 1032,4
16.02.2019 10:00:00 3,0 1,5 2 1 NE 1032,5
16.02.2019 09:00:00 1,8 0,5 0 0 N 1032,5
16.02.2019 08:00:00 0,0 -1,3 8 4 NNE 1032,1
16.02.2019 07:00:00 -0,3 -1,6 0 0 N 1031,7
16.02.2019 06:00:00 -0,7 -2,0 0 0 N 1031,8
16.02.2019 05:00:00 0,5 -0,8 0 0 N 1031,9
16.02.2019 04:00:00 0,3 -1,2 0 0 N 1032,1
16.02.2019 03:00:00 1,4 -0,1 0 0 N 1032,3
16.02.2019 02:00:00 1,6 0,1 0 0 N 1032,7
16.02.2019 01:00:00 1,6 0,3 0 0 N 1032,9
16.02.2019 00:00:00 0,9 -0,6 0 0 N 1033,0
15.02.2019 23:00:00 0,4 -1,1 0 0 N 1032,7
15.02.2019 22:00:00 1,2 -0,3 0 0 N 1032,6
15.02.2019 21:00:00 2,3 0,6 0 0 N 1032,3
15.02.2019 20:00:00 2,6 0,3 0 0 N 1032,7
15.02.2019 19:00:00 4,6 0,7 4 2 SSW 1032,7

tt = Température de l'air
td = dewpoint
ff = Vitesse du vent
dd = Direction du vent
ppp = reduced air pressure

stations d'obs. à proximité